createdAt,value
2023-02-08T00:04:30.687Z,-1.66
2023-02-08T00:09:38.012Z,-1.57
2023-02-08T00:14:45.253Z,-1.54
2023-02-08T00:19:52.473Z,-1.61
2023-02-08T00:24:59.680Z,-1.68
2023-02-08T00:30:08.917Z,-1.72
2023-02-08T00:35:16.213Z,-1.76
2023-02-08T00:40:23.614Z,-1.77
2023-02-08T00:45:30.889Z,-1.73
2023-02-08T00:50:38.331Z,-1.70
2023-02-08T00:55:51.681Z,-1.68
2023-02-08T01:00:58.940Z,-1.66
2023-02-08T01:06:08.613Z,-1.65
2023-02-08T01:11:18.674Z,-1.66
2023-02-08T01:16:32.782Z,-1.68
2023-02-08T01:21:44.046Z,-1.67
2023-02-08T01:26:51.337Z,-1.58
2023-02-08T01:31:58.486Z,-1.48
2023-02-08T01:37:05.642Z,-1.39
2023-02-08T01:42:17.024Z,-1.35
2023-02-08T01:47:24.650Z,-1.41
2023-02-08T01:52:32.404Z,-1.49
2023-02-08T01:57:41.759Z,-1.57
2023-02-08T02:02:53.488Z,-1.62
2023-02-08T02:08:01.797Z,-1.64
2023-02-08T02:13:11.737Z,-1.61
2023-02-08T02:18:26.191Z,-1.51
2023-02-08T02:24:12.861Z,-1.42
2023-02-08T02:29:53.380Z,-1.37
2023-02-08T02:35:09.507Z,-1.44
2023-02-08T02:40:27.254Z,-1.51
2023-02-08T02:45:39.447Z,-1.57
2023-02-08T02:50:50.578Z,-1.63
2023-02-08T02:56:05.078Z,-1.68
2023-02-08T03:01:12.421Z,-1.69
2023-02-08T03:06:29.882Z,-1.66
2023-02-08T03:11:46.522Z,-1.61
2023-02-08T03:17:04.988Z,-1.55
2023-02-08T03:22:18.309Z,-1.55
2023-02-08T03:27:37.346Z,-1.53
2023-02-08T03:32:49.340Z,-1.54
2023-02-08T03:38:02.107Z,-1.61
2023-02-08T03:43:16.755Z,-1.69
2023-02-08T03:48:26.772Z,-1.76
2023-02-08T03:53:38.572Z,-1.82
2023-02-08T03:58:49.689Z,-1.86
2023-02-08T04:04:00.554Z,-1.88
2023-02-08T04:09:08.151Z,-1.83
2023-02-08T04:14:15.400Z,-1.76
2023-02-08T04:19:22.671Z,-1.72
2023-02-08T04:24:29.991Z,-1.78
2023-02-08T04:29:37.307Z,-1.86
2023-02-08T04:34:44.593Z,-1.99
2023-02-08T04:39:51.857Z,-2.08
2023-02-08T04:44:59.232Z,-2.14
2023-02-08T04:50:07.923Z,-2.27
2023-02-08T04:55:15.208Z,-2.35
2023-02-08T05:00:22.898Z,-2.36
2023-02-08T05:05:30.627Z,-2.31
2023-02-08T05:10:38.290Z,-2.22
2023-02-08T05:15:44.451Z,-2.19
2023-02-08T05:20:58.893Z,-2.22
2023-02-08T05:26:11.165Z,-2.25
2023-02-08T05:31:22.942Z,-2.29
2023-02-08T05:36:35.368Z,-2.38
2023-02-08T05:41:42.644Z,-2.46
2023-02-08T05:46:50.056Z,-2.54
2023-02-08T05:51:57.447Z,-2.61
2023-02-08T05:57:05.027Z,-2.65
2023-02-08T06:02:12.464Z,-2.68
2023-02-08T06:07:19.872Z,-2.66
2023-02-08T06:12:30.278Z,-2.56
2023-02-08T06:17:40.101Z,-2.45
2023-02-08T06:22:47.474Z,-2.39
2023-02-08T06:27:57.277Z,-2.39
2023-02-08T06:33:04.705Z,-2.42
2023-02-08T06:38:12.004Z,-2.42
2023-02-08T06:43:19.727Z,-2.41
2023-02-08T06:48:27.207Z,-2.43
2023-02-08T06:53:34.412Z,-2.47
2023-02-08T06:58:41.591Z,-2.47
2023-02-08T07:03:48.696Z,-2.44
2023-02-08T07:08:56.049Z,-2.41
2023-02-08T07:14:03.245Z,-2.40
2023-02-08T07:19:10.302Z,-2.34
2023-02-08T07:24:17.459Z,-2.07
2023-02-08T07:29:25.058Z,-1.61
2023-02-08T07:34:34.898Z,-1.12
2023-02-08T07:39:42.116Z,-0.64
2023-02-08T07:44:50.967Z,-0.14
2023-02-08T07:49:59.358Z,0.35
2023-02-08T07:55:06.762Z,0.90
2023-02-08T08:00:16.757Z,1.48
2023-02-08T08:05:24.018Z,2.20
2023-02-08T08:10:31.169Z,2.99
2023-02-08T08:15:38.494Z,3.78
2023-02-08T08:20:46.085Z,4.56
2023-02-08T08:25:53.333Z,5.26
2023-02-08T08:31:03.021Z,5.88
2023-02-08T08:36:11.370Z,6.16
2023-02-08T08:41:19.404Z,6.77
2023-02-08T08:46:25.396Z,7.41
2023-02-08T08:51:35.544Z,7.84
2023-02-08T08:56:45.310Z,8.47
2023-02-08T09:02:01.443Z,8.62
2023-02-08T09:07:09.354Z,8.84
2023-02-08T09:12:56.713Z,9.31
2023-02-08T09:18:04.218Z,9.49
2023-02-08T09:23:11.485Z,9.09
2023-02-08T09:28:18.770Z,9.25
2023-02-08T09:33:26.059Z,9.74
2023-02-08T09:38:35.516Z,10.12
2023-02-08T09:43:51.904Z,10.38
2023-02-08T09:49:06.354Z,10.62
2023-02-08T09:54:20.261Z,10.70
2023-02-08T09:59:30.798Z,10.55
2023-02-08T10:04:43.602Z,10.49
2023-02-08T10:09:50.876Z,10.55
2023-02-08T10:15:11.675Z,9.93
2023-02-08T10:20:34.235Z,10.03
2023-02-08T10:26:04.766Z,9.26
2023-02-08T10:31:22.223Z,7.71
2023-02-08T10:36:34.892Z,6.40
2023-02-08T10:41:42.341Z,6.11
2023-02-08T10:46:57.758Z,5.98
2023-02-08T10:52:05.914Z,4.76
2023-02-08T10:57:19.709Z,4.26
2023-02-08T11:02:29.667Z,3.97
2023-02-08T11:07:37.954Z,3.56
2023-02-08T11:12:55.480Z,3.85
2023-02-08T11:18:05.095Z,4.46
2023-02-08T11:23:25.119Z,4.63
2023-02-08T11:28:33.290Z,4.53
2023-02-08T11:33:47.602Z,4.73
2023-02-08T11:38:55.892Z,5.20
2023-02-08T11:44:07.254Z,5.52
2023-02-08T11:49:24.863Z,5.91
2023-02-08T11:54:42.212Z,6.06
2023-02-08T11:59:50.918Z,6.26
2023-02-08T12:04:59.942Z,5.79
2023-02-08T12:10:18.922Z,5.09
2023-02-08T12:15:32.964Z,4.53
2023-02-08T12:20:47.129Z,4.19
2023-02-08T12:26:06.216Z,3.80
2023-02-08T12:31:24.517Z,3.28
2023-02-08T12:36:36.465Z,3.00
2023-02-08T12:41:50.118Z,2.65
2023-02-08T12:47:10.368Z,2.48
2023-02-08T12:52:28.161Z,2.17
2023-02-08T12:57:36.640Z,1.87
2023-02-08T13:02:50.632Z,1.74
2023-02-08T13:08:04.344Z,1.76
2023-02-08T13:13:21.245Z,1.66
2023-02-08T13:18:39.907Z,1.58
2023-02-08T13:23:53.186Z,1.55
2023-02-08T13:29:03.503Z,1.46
2023-02-08T13:34:19.123Z,1.32
2023-02-08T13:39:42.807Z,1.16
2023-02-08T13:44:56.757Z,0.91
2023-02-08T13:50:07.602Z,0.64
2023-02-08T13:56:05.916Z,0.44
2023-02-08T14:01:24.373Z,0.33
2023-02-08T14:06:33.648Z,0.21
2023-02-08T14:11:49.227Z,0.11
2023-02-08T14:17:20.018Z,-0.01
2023-02-08T14:22:30.733Z,-0.09
2023-02-08T14:27:43.448Z,-0.18
2023-02-08T14:32:53.344Z,-0.26
2023-02-08T14:38:31.143Z,-0.34
2023-02-08T14:43:43.391Z,-0.46
2023-02-08T14:48:52.225Z,-0.50
2023-02-08T14:54:05.185Z,-0.55
2023-02-08T14:59:16.472Z,-0.59
2023-02-08T15:04:23.944Z,-0.66
2023-02-08T15:09:33.279Z,-0.77
2023-02-08T15:14:44.033Z,-0.86
2023-02-08T15:19:54.835Z,-0.97
2023-02-08T15:25:22.093Z,-1.06
2023-02-08T15:30:34.087Z,-1.12
2023-02-08T15:49:08.542Z,-1.45
2023-02-08T15:54:22.249Z,-1.61
2023-02-08T15:59:38.305Z,-1.74
2023-02-08T16:11:37.576Z,-2.03
2023-02-08T16:16:48.636Z,-2.16
2023-02-08T16:21:57.216Z,-2.23
2023-02-08T16:27:20.195Z,-2.23
2023-02-08T16:32:30.604Z,-2.22
2023-02-08T16:37:41.250Z,-2.22
2023-02-08T16:42:48.690Z,-2.27
2023-02-08T16:48:00.149Z,-2.37
2023-02-08T16:53:18.457Z,-2.48
2023-02-08T16:58:28.141Z,-2.57
2023-02-08T17:03:38.519Z,-2.65
2023-02-08T17:08:45.697Z,-2.71
2023-02-08T17:13:53.451Z,-2.76
2023-02-08T17:19:01.699Z,-2.82
2023-02-08T17:24:09.322Z,-2.88
2023-02-08T17:29:16.488Z,-2.95
2023-02-08T17:34:23.921Z,-3.01
2023-02-08T17:39:33.636Z,-3.11
2023-02-08T17:44:41.952Z,-3.21
2023-02-08T17:49:49.730Z,-3.29
2023-02-08T17:54:56.959Z,-3.39
2023-02-08T18:00:05.274Z,-3.47
2023-02-08T18:05:21.576Z,-3.54
2023-02-08T18:10:29.177Z,-3.58
2023-02-08T18:15:36.935Z,-3.59
2023-02-08T18:20:47.726Z,-3.61
2023-02-08T18:26:03.684Z,-3.69
2023-02-08T18:31:14.719Z,-3.79
2023-02-08T18:36:23.171Z,-3.88
2023-02-08T18:41:31.865Z,-3.98
2023-02-08T18:46:40.044Z,-4.07
2023-02-08T18:51:48.316Z,-4.11
2023-02-08T18:56:56.044Z,-4.09
2023-02-08T19:02:03.466Z,-4.06
2023-02-08T19:07:10.745Z,-4.03
2023-02-08T19:12:19.253Z,-3.98
2023-02-08T19:17:26.496Z,-3.98
2023-02-08T19:22:33.751Z,-4.07
2023-02-08T19:27:40.958Z,-4.15
2023-02-08T19:32:48.280Z,-4.25
2023-02-08T19:37:58.328Z,-4.35
2023-02-08T19:43:07.217Z,-4.40
2023-02-08T19:48:17.276Z,-4.44
2023-02-08T19:53:31.103Z,-4.41
2023-02-08T19:58:42.829Z,-4.31
2023-02-08T20:03:56.327Z,-4.23
2023-02-08T20:09:18.366Z,-4.21
2023-02-08T20:14:35.897Z,-4.29
2023-02-08T20:19:58.986Z,-4.40
2023-02-08T20:25:12.937Z,-4.54
2023-02-08T20:30:43.706Z,-4.69
2023-02-08T20:35:52.115Z,-4.83
2023-02-08T20:41:06.375Z,-4.91
2023-02-08T20:46:30.087Z,-4.94
2023-02-08T20:51:40.975Z,-4.97
2023-02-08T20:56:48.313Z,-5.01
2023-02-08T21:01:58.032Z,-5.10
2023-02-08T21:07:03.969Z,-5.21
2023-02-08T21:12:15.955Z,-5.34
2023-02-08T21:17:23.679Z,-5.43
2023-02-08T21:22:29.472Z,-5.47
2023-02-08T21:27:37.083Z,-5.49
2023-02-08T21:32:44.936Z,-5.47
2023-02-08T21:37:53.372Z,-5.43
2023-02-08T21:43:00.985Z,-5.36
2023-02-08T21:48:08.908Z,-5.35
2023-02-08T21:53:34.302Z,-5.36
2023-02-08T21:58:45.121Z,-5.42
2023-02-08T22:03:55.112Z,-5.54
2023-02-08T22:09:03.288Z,-5.64
2023-02-08T22:14:09.415Z,-5.69
2023-02-08T22:19:17.222Z,-5.69
2023-02-08T22:24:24.453Z,-5.67
2023-02-08T22:29:32.156Z,-5.63
2023-02-08T22:34:39.888Z,-5.59
2023-02-08T22:39:45.480Z,-5.61
2023-02-08T22:44:54.985Z,-5.67
2023-02-08T22:50:02.415Z,-5.77
2023-02-08T22:55:10.351Z,-5.85
2023-02-08T23:00:20.772Z,-5.96
2023-02-08T23:05:28.007Z,-6.06
2023-02-08T23:10:35.448Z,-6.06
2023-02-08T23:15:47.256Z,-6.00
2023-02-08T23:20:55.574Z,-5.94
2023-02-08T23:26:08.016Z,-5.93
2023-02-08T23:31:18.454Z,-6.00
2023-02-08T23:36:29.299Z,-6.08
2023-02-08T23:41:36.816Z,-6.14
2023-02-08T23:46:44.147Z,-6.21
2023-02-08T23:51:51.735Z,-6.27
2023-02-08T23:57:00.149Z,-6.27
